Date,TemperatureHighF,TemperatureAvgF,TemperatureLowF,DewpointHighF,DewpointAvgF,DewpointLowF,HumidityHigh,HumidityAvg,HumidityLow,PressureMaxIn,PressureMinIn,WindSpeedMaxMPH,WindSpeedAvgMPH,GustSpeedMaxMPH,PrecipitationSumIn
2012-1-1,35.7,31.3,29.4,28.4,24.2,20.8,82,75,70,30.74,30.42,21,7,21,0.00
2012-1-2,47.8,36.5,30.5,32.1,27.8,24.2,87,72,44,30.53,30.22,17,7,17,0.00
2012-1-3,54.6,40.2,33.7,38.6,30.8,26.1,82,69,52,30.58,30.36,15,5,15,0.00
2012-1-4,52.7,40.8,32.4,33.2,28.1,25.9,81,61,42,30.54,30.24,13,5,13,0.00
2012-1-5,45.9,37.5,28.9,35.7,27.8,21.8,87,68,48,30.47,30.25,22,6,22,0.00
2012-1-6,36.1,29.5,24.1,27.8,23.8,19.3,89,79,68,30.51,30.36,10,3,10,0.00
2012-1-7,39.7,29.3,26.8,28.2,24.8,23.8,90,84,59,30.66,30.41,13,3,13,0.00
2012-1-8,40.7,32.7,29.2,32.4,28.2,25.1,90,83,69,30.63,30.52,16,5,16,0.00
2012-1-9,52.1,37.5,27.3,37.1,28.7,23.3,88,71,50,30.57,30.20,15,5,15,0.00
2012-1-10,39.5,29.3,16.0,30.4,26.0,11.7,98,88,64,30.74,30.20,16,4,16,0.05
2012-1-11,32.7,17.7,8.3,21.4,11.6,2.7,85,77,54,30.87,30.68,15,4,15,0.04
2012-1-12,32.0,19.9,10.9,21.5,14.0,6.2,88,78,59,30.79,30.56,15,4,15,0.01
2012-1-13,38.4,27.2,16.4,27.0,18.9,10.6,84,71,56,30.61,30.24,16,4,16,0.02
2012-1-14,41.9,34.7,24.1,28.9,22.4,18.2,92,62,43,30.25,29.89,23,9,23,0.01
2012-1-15,26.8,20.2,11.4,21.3,15.6,8.4,91,82,69,30.22,30.09,13,3,13,0.04
2012-1-16,23.2,20.5,18.2,19.5,15.2,11.5,91,80,63,30.34,30.15,25,6,25,0.01
2012-1-17,28.1,23.8,22.2,24.1,18.6,12.6,95,81,64,30.29,30.01,41,14,41,0.00
2012-1-18,32.0,24.2,20.0,30.7,22.5,18.1,100,93,91,30.15,29.84,21,4,21,0.00
2012-1-19,33.3,29.0,21.4,32.5,27.8,19.5,97,95,93,29.99,29.70,9,2,9,0.00
2012-1-20,41.1,32.7,21.1,39.3,29.9,19.4,97,90,75,30.07,29.48,22,6,22,0.45
2012-1-21,41.9,35.7,28.1,35.4,29.8,20.5,93,79,71,30.06,29.39,20,8,20,0.18
2012-1-22,34.4,29.5,22.0,26.5,21.5,15.0,82,72,61,30.18,29.96,24,9,24,0.00
2012-1-23,33.4,28.9,17.3,29.3,25.9,14.6,94,89,75,30.39,29.98,12,3,12,0.08
2012-1-24,38.9,28.9,18.4,33.9,24.2,15.4,92,83,61,30.42,30.11,33,11,33,0.08
2012-1-25,45.0,39.3,34.3,35.8,31.2,27.6,90,73,60,30.41,30.09,36,11,36,0.04
2012-1-26,40.4,33.9,25.9,34.8,27.7,19.9,91,78,66,30.62,30.09,23,12,23,0.19
2012-1-27,40.9,27.1,16.7,27.9,18.4,11.9,83,70,53,30.81,30.61,15,4,15,0.00
2012-1-28,38.1,30.7,22.0,28.0,20.1,11.7,77,64,55,30.71,30.43,20,6,20,0.00
2012-1-29,43.7,39.9,34.8,30.0,25.7,20.8,77,57,43,30.43,29.98,26,10,26,0.00
2012-1-30,42.2,36.1,31.5,33.4,29.5,24.8,94,77,63,30.25,29.91,25,7,25,0.16
2012-1-31,35.2,31.9,28.8,28.7,25.7,23.0,83,77,68,30.22,30.18,14,7,14,0.00
2012-2-1,39.1,32.3,28.7,33.3,28.3,25.2,94,85,76,30.51,30.14,22,6,22,0.11
2012-2-2,47.7,32.3,24.5,33.3,26.0,20.5,92,78,55,30.66,30.50,10,3,10,0.01
2012-2-3,37.6,29.5,22.1,28.7,24.8,20.4,93,83,69,30.62,30.52,16,9,16,0.01
2012-2-4,40.9,31.5,22.9,30.9,24.4,18.6,86,75,64,30.60,30.50,16,7,16,0.00
2012-2-5,52.7,34.8,21.9,32.7,24.6,16.8,83,68,43,30.57,30.38,10,4,10,0.00
2012-2-6,41.2,32.5,24.0,28.2,22.9,18.6,82,68,51,30.46,30.33,21,10,21,0.00
2012-2-7,42.3,33.0,26.3,28.6,23.8,19.1,82,69,54,30.32,30.21,15,8,15,0.00
2012-2-8,44.9,34.6,27.0,31.4,25.7,19.1,81,70,55,30.51,30.27,9,3,9,0.00
2012-2-9,41.6,36.2,32.0,36.2,32.8,29.4,95,88,77,30.55,30.35,10,3,10,0.03
2012-2-10,52.2,38.7,33.5,43.4,35.9,32.1,96,90,71,30.35,30.17,15,4,15,0.00
2012-2-11,39.0,33.7,31.8,36.3,32.3,30.8,96,95,90,30.26,30.12,7,2,7,0.11
2012-2-12,42.7,33.2,28.7,37.5,31.5,27.2,97,94,79,30.26,30.03,13,2,13,0.06
2012-2-13,32.6,29.8,26.6,31.5,28.4,24.8,96,94,92,30.15,30.00,7,3,7,0.01
2012-2-14,40.6,31.5,28.3,34.6,29.0,26.8,96,90,76,30.20,30.01,17,3,17,0.01
2012-2-15,32.1,27.5,22.2,27.6,25.0,19.1,95,90,80,30.60,30.19,8,3,8,0.01
2012-2-16,35.6,28.1,20.6,30.4,24.3,17.2,95,86,65,30.59,30.39,20,6,20,0.01
2012-2-17,45.2,35.6,30.2,37.5,32.2,28.7,96,87,73,30.48,30.04,14,5,14,0.02
2012-2-18,36.4,31.8,27.9,31.2,26.4,21.8,95,80,67,30.22,30.04,20,6,20,0.09
2012-2-19,33.2,28.7,25.5,28.1,25.6,21.6,94,88,74,30.19,30.14,15,5,15,0.02
2012-2-20,34.7,29.2,22.0,30.9,25.6,17.9,100,87,74,30.23,30.10,16,4,16,0.00
2012-2-21,47.2,40.3,31.6,41.4,37.1,30.3,96,89,77,30.19,30.03,26,9,26,0.51
2012-2-22,47.1,39.5,31.2,40.1,32.3,22.6,92,76,53,30.27,29.88,33,15,33,0.22
2012-2-23,35.6,31.7,27.4,28.8,24.5,21.8,82,75,66,30.46,30.27,16,6,16,0.00
2012-2-24,44.6,35.4,26.8,31.6,25.9,21.3,84,69,56,30.46,29.74,31,10,31,0.01
2012-2-25,35.1,29.2,26.9,32.0,25.3,19.8,100,85,71,30.29,29.71,24,8,24,0.02
2012-2-26,34.4,26.2,23.5,26.5,21.6,17.4,93,83,66,30.34,30.25,15,4,15,0.11
2012-2-27,31.0,21.2,13.7,28.4,18.6,10.9,93,90,80,30.35,30.20,12,2,12,0.08
2012-2-28,36.2,25.8,15.3,26.1,20.8,13.1,93,82,64,30.23,29.84,20,9,20,0.02
2012-2-29,34.2,29.8,25.0,27.5,22.4,18.7,100,74,57,29.99,29.75,22,9,22,0.05
2012-3-1,31.7,26.7,22.0,24.8,22.0,17.0,93,83,67,30.41,29.95,23,7,23,0.02
2012-3-2,32.7,29.9,25.4,28.9,23.1,18.8,93,76,64,30.55,30.41,15,5,15,0.02
2012-3-3,44.2,37.5,30.3,36.2,32.5,28.3,95,82,70,30.48,30.42,20,4,20,0.03
2012-3-4,59.0,42.8,30.0,41.8,33.9,27.5,100,73,48,30.48,30.07,16,4,16,0.01
2012-3-5,47.4,40.4,27.9,33.8,30.8,21.4,93,70,47,30.08,29.73,22,8,22,0.15
2012-3-6,30.5,26.1,22.6,22.0,17.2,11.0,86,69,50,30.39,29.86,20,6,20,0.00
2012-3-7,42.6,29.9,20.8,24.0,18.6,11.5,78,63,40,30.68,30.38,14,4,14,0.00
2012-3-8,55.4,38.6,25.7,38.5,28.2,21.4,85,68,43,30.69,30.45,18,10,18,0.00
2012-3-9,66.5,48.9,37.0,41.2,29.7,22.5,65,48,32,30.46,30.04,17,4,17,0.00
2012-3-10,57.3,44.4,36.2,35.1,29.9,22.5,79,58,39,30.05,29.79,20,5,20,0.00
2012-3-11,40.2,35.3,29.1,33.2,29.6,23.1,94,80,65,30.04,29.68,22,4,22,0.20
2012-3-12,40.6,34.1,24.8,33.6,28.1,19.0,88,79,68,30.07,29.61,33,11,33,0.01
2012-3-13,46.1,34.2,27.3,35.3,28.9,21.5,94,81,63,30.12,29.50,50,13,50,0.11
2012-3-14,37.6,31.7,26.3,33.5,29.2,21.9,94,91,80,30.16,30.07,17,7,17,0.03
2012-3-15,50.4,42.5,34.4,42.3,37.4,31.8,93,83,69,30.11,29.90,31,8,31,0.00
2012-3-16,45.9,38.0,32.1,41.6,34.6,30.8,95,88,62,29.92,29.61,24,10,24,0.58
2012-3-17,42.6,36.6,32.1,38.1,33.0,28.0,94,87,57,29.75,29.49,18,5,18,0.17
2012-3-18,34.7,31.2,28.9,30.8,27.5,24.3,93,86,75,29.85,29.63,15,4,15,0.01
2012-3-19,40.6,30.6,20.6,29.5,21.9,12.9,90,72,42,30.09,29.85,17,4,17,0.01
2012-3-20,36.8,32.2,29.2,31.8,27.4,20.1,95,83,63,30.15,29.92,38,8,38,0.04
2012-3-21,37.7,32.1,30.3,33.7,30.3,29.0,96,93,81,30.16,29.95,7,2,7,0.59
2012-3-22,40.9,32.2,29.6,37.1,30.4,27.8,96,93,83,30.22,29.82,20,5,20,0.20
2012-3-23,36.2,31.3,27.1,34.0,29.8,25.8,96,94,89,30.35,30.06,12,3,12,0.23
2012-3-24,42.9,35.1,26.3,37.3,32.4,24.9,96,90,75,30.33,30.03,16,5,16,0.01
2012-3-25,55.6,41.4,29.7,44.1,36.7,27.9,95,84,55,30.06,29.74,14,3,14,0.40
2012-3-26,46.3,37.6,32.5,39.2,35.5,31.1,96,92,71,30.07,29.73,27,4,27,0.74
2012-3-27,52.4,41.9,32.4,38.2,32.7,28.0,92,71,47,30.08,29.81,26,10,26,0.01
2012-3-28,52.1,39.6,32.2,43.0,35.7,30.7,95,87,62,30.12,29.78,25,8,25,0.38
2012-3-29,51.6,42.8,34.4,38.4,34.9,31.1,91,74,54,30.06,29.74,35,12,35,0.02
2012-3-30,54.3,43.0,33.8,43.6,38.1,32.5,96,83,61,29.89,29.66,33,11,33,0.41
2012-3-31,62.6,41.8,31.9,46.6,35.7,30.6,96,82,38,29.89,29.45,47,14,47,0.12
2012-4-1,41.6,35.2,31.9,32.7,28.3,23.3,95,77,53,30.34,29.67,24,9,24,0.15
2012-4-2,52.4,38.0,30.2,34.2,29.0,25.0,87,71,47,30.52,30.27,20,7,20,0.00
2012-4-3,57.2,42.6,31.9,36.8,30.5,26.3,83,64,37,30.28,29.91,21,10,21,0.00
2012-4-4,38.2,31.4,26.5,32.9,29.4,24.8,95,92,81,30.24,29.85,14,5,14,0.17
2012-4-5,36.7,30.3,24.3,35.3,28.7,22.6,100,94,91,30.26,30.22,12,3,12,0.01
2012-4-6,37.2,30.5,27.4,33.1,28.2,25.6,100,91,82,30.50,30.22,17,4,17,0.09
2012-4-7,50.7,36.5,24.9,35.3,25.9,19.1,93,68,34,30.53,30.40,15,6,15,0.02
2012-4-8,58.0,44.5,31.4,40.2,32.3,21.9,85,63,43,30.42,30.18,23,9,23,0.00
2012-4-9,64.8,51.9,38.0,45.9,36.4,30.3,74,56,36,30.18,29.95,15,6,15,0.00
2012-4-10,73.5,54.4,43.3,47.7,36.5,29.6,72,52,25,29.97,29.71,22,8,22,0.00
2012-4-11,62.2,50.6,41.8,44.9,37.0,27.5,92,61,44,29.77,29.54,20,5,20,0.09
2012-4-12,53.2,41.8,33.7,40.0,36.1,32.1,96,82,48,29.98,29.76,25,6,25,0.14
2012-4-13,58.2,42.5,32.0,42.7,33.8,25.8,96,74,36,30.01,29.82,21,6,21,0.01
2012-4-14,55.7,46.2,36.9,38.7,31.7,25.9,76,58,35,30.06,29.87,24,5,24,0.00
2012-4-15,51.9,43.6,36.5,35.8,31.0,27.8,78,62,45,30.25,30.06,20,7,20,0.00
2012-4-16,45.9,41.7,35.2,41.5,35.7,28.7,92,79,56,30.24,30.17,20,5,20,0.20
2012-4-17,53.2,44.4,34.1,39.0,35.3,27.3,92,72,42,30.34,30.04,27,4,27,0.01
2012-4-18,53.2,45.2,38.2,43.7,38.6,29.6,94,78,54,30.20,30.03,15,4,15,0.29
2012-4-19,57.0,46.4,35.9,44.3,38.2,32.3,92,75,48,30.26,30.16,12,3,12,0.06
2012-4-20,57.4,51.9,46.7,49.1,46.0,43.8,90,80,68,30.24,30.15,17,6,17,0.01
2012-4-21,68.0,56.2,42.9,52.2,45.7,39.2,89,70,43,30.26,30.13,15,5,15,0.00
2012-4-22,83.2,62.9,45.1,57.1,48.1,40.1,83,61,30,30.15,29.90,20,8,20,0.00
2012-4-23,79.4,66.0,52.6,58.3,51.6,44.1,81,61,40,29.94,29.74,28,6,28,0.23
2012-4-24,70.3,56.8,50.6,55.2,49.9,45.6,90,79,57,29.91,29.84,15,5,29,0.02
2012-4-25,68.3,57.6,48.2,55.7,49.8,46.0,96,77,48,30.00,29.72,18,7,18,0.14
2012-4-26,56.6,46.6,38.8,51.1,43.4,30.6,94,89,70,30.07,29.51,21,9,21,0.35
2012-4-27,48.1,40.2,34.0,34.5,31.3,28.5,86,71,51,30.38,30.08,16,4,16,0.00
2012-4-28,45.5,43.7,39.7,35.7,33.3,29.7,80,67,65,30.38,30.21,6,2,6,0.00
2012-4-29,61.9,48.5,34.8,43.1,37.0,30.9,92,66,44,30.35,29.89,16,5,16,0.00
2012-4-30,54.7,48.0,40.7,49.0,40.4,31.3,95,76,56,29.94,29.74,25,6,25,0.34
2012-5-1,47.9,40.3,34.3,33.2,29.7,27.3,83,66,51,30.07,29.92,17,5,17,0.00
2012-5-2,53.7,40.7,34.2,32.9,29.9,26.1,86,67,38,30.12,29.96,16,5,16,0.00
2012-5-3,53.9,42.3,35.4,45.7,37.5,28.6,93,83,68,30.05,29.83,30,8,30,0.27
2012-5-4,47.9,39.9,32.5,38.5,34.8,29.8,93,82,57,30.37,30.04,22,4,22,0.08
2012-5-5,47.1,39.0,33.7,34.6,30.9,26.5,94,74,53,30.59,30.36,17,5,17,0.12
2012-5-6,59.4,44.8,31.7,35.9,30.6,26.5,89,60,35,30.60,30.50,23,4,23,0.00
2012-5-7,67.3,50.2,35.6,41.6,33.9,28.4,76,56,30,30.52,30.26,15,5,15,0.00
2012-5-8,75.3,59.1,41.9,48.2,40.2,26.4,70,51,34,30.27,29.97,14,5,14,0.00
2012-5-9,58.7,51.3,39.7,46.4,35.5,21.0,72,56,31,30.23,29.96,25,8,25,0.00
2012-5-10,51.7,41.0,32.0,26.6,22.2,18.3,66,48,30,30.44,30.22,23,7,23,0.00
2012-5-11,61.7,46.0,29.3,28.7,22.3,14.9,72,42,19,30.45,30.32,20,4,20,0.00
2012-5-12,70.4,52.3,34.8,37.3,29.9,21.2,64,44,23,30.44,30.31,13,5,13,0.00
2012-5-13,79.7,60.1,41.9,48.6,35.7,22.5,59,42,23,30.35,30.17,14,6,14,0.00
2012-5-14,85.8,66.5,47.3,51.9,38.5,24.9,63,38,18,30.20,30.00,14,7,14,0.00
2012-5-15,81.1,68.4,54.2,54.3,43.9,35.9,61,42,29,30.02,29.89,15,4,15,0.00
2012-5-16,72.3,62.1,49.9,46.0,41.0,35.9,71,47,29,30.00,29.89,22,4,22,0.00
2012-5-17,61.6,54.5,47.4,42.5,37.5,34.1,65,53,43,29.97,29.89,21,4,21,0.00
2012-5-18,59.4,52.1,39.3,36.0,30.2,22.1,59,44,28,30.18,29.89,21,4,21,0.00
2012-5-19,67.0,52.5,37.8,39.4,31.1,24.0,66,46,27,30.18,30.11,17,4,17,0.00
2012-5-20,72.3,57.8,46.2,45.5,39.4,30.8,67,51,34,30.17,30.07,13,5,13,0.00
2012-5-21,68.8,55.5,49.0,55.5,47.8,41.3,96,76,47,30.07,29.90,16,6,16,0.62
2012-5-22,51.9,45.9,39.8,48.1,42.7,37.3,96,89,74,30.04,29.91,23,4,23,0.56
2012-5-23,51.7,43.8,38.8,45.1,37.8,33.6,92,80,62,30.08,29.99,18,6,18,0.24
2012-5-24,59.1,46.4,39.1,44.3,38.6,34.0,93,76,45,30.01,29.82,21,5,21,0.01
2012-5-25,58.2,47.2,39.1,38.6,35.0,31.8,86,64,43,29.93,29.80,38,22,38,0.00
2012-5-26,57.1,48.8,38.9,38.2,35.8,32.4,78,61,46,29.94,29.85,22,12,22,0.00
2012-5-27,58.6,48.0,41.2,47.4,41.7,34.6,91,79,54,30.11,29.93,17,6,17,0.04
2012-5-28,67.7,53.9,42.3,52.8,44.5,34.6,90,72,44,30.16,30.03,14,4,14,0.14
2012-5-29,58.9,49.6,42.0,49.3,43.7,40.1,95,81,63,30.22,30.02,13,4,13,0.08
2012-5-30,63.0,53.2,45.0,43.3,40.0,33.5,87,63,37,30.31,30.17,16,4,16,0.00
2012-5-31,61.8,54.7,45.6,54.2,48.3,39.0,94,80,63,30.27,30.10,14,5,14,0.03
2012-6-1,74.3,62.9,51.6,58.1,53.6,48.8,95,73,50,30.11,29.83,16,4,16,0.00
2012-6-2,64.1,55.2,49.1,54.4,50.4,45.3,96,85,56,30.01,29.78,13,4,13,0.35
2012-6-3,58.2,52.7,47.7,53.5,48.1,42.1,94,84,72,30.06,29.95,12,4,12,0.10
2012-6-4,78.2,56.3,47.3,62.9,51.9,44.1,96,86,57,30.01,29.61,22,7,22,0.33
2012-6-5,48.2,43.6,40.7,46.0,41.9,37.9,96,93,87,30.17,29.80,20,5,20,0.27
2012-6-6,55.6,45.4,37.4,41.6,36.6,32.4,93,73,47,30.24,30.14,24,8,24,0.08
2012-6-7,59.6,48.8,38.1,46.2,39.6,32.3,94,72,44,30.21,29.99,33,8,33,0.01
2012-6-8,53.4,44.6,38.6,43.6,39.5,34.9,95,83,57,30.10,29.97,18,4,18,0.23
2012-6-9,49.1,41.6,35.5,42.1,38.2,33.3,95,88,72,30.16,30.01,22,6,22,0.19
2012-6-10,60.5,48.3,41.5,47.4,42.1,38.0,93,80,56,30.33,30.14,14,6,14,0.29
2012-6-11,72.7,57.2,39.7,52.8,44.9,37.8,94,67,35,30.32,30.09,16,6,16,0.00
2012-6-12,71.0,59.5,51.2,59.1,50.5,41.0,91,73,52,30.12,29.96,16,5,16,0.17
2012-6-13,64.3,56.7,46.4,51.6,44.6,37.4,92,66,42,30.10,29.94,20,4,20,0.06
2012-6-14,71.9,57.1,42.9,51.8,42.9,35.9,81,60,41,30.11,30.00,15,4,15,0.00
2012-6-15,66.8,56.0,45.6,46.0,39.9,34.9,78,56,37,30.28,30.05,17,4,17,0.00
2012-6-16,78.9,61.8,43.9,52.9,45.9,36.8,80,59,29,30.27,29.89,12,4,12,0.00
2012-6-17,70.6,62.6,54.4,57.3,49.3,41.4,92,64,39,29.90,29.77,23,5,23,0.01
2012-6-18,56.0,49.9,45.9,47.2,42.9,37.6,92,77,58,30.02,29.80,17,4,17,0.18
2012-6-19,59.0,49.3,38.6,45.6,39.9,34.4,86,71,55,30.26,30.02,15,4,15,0.00
2012-6-20,71.3,55.7,38.9,49.8,42.0,34.8,86,62,37,30.30,30.05,20,7,20,0.00
2012-6-21,83.6,67.8,50.1,57.3,46.6,40.6,74,49,26,30.05,29.65,16,7,16,0.00
2012-6-22,75.6,66.1,52.2,59.1,51.0,41.9,89,59,41,29.77,29.57,16,4,16,0.00
2012-6-23,75.4,60.2,51.2,58.2,51.4,47.0,92,74,50,29.90,29.72,16,4,16,0.00
2012-6-24,71.0,59.8,51.3,55.1,48.3,44.1,91,67,49,30.03,29.82,17,4,17,0.00
2012-6-25,73.8,61.3,52.4,52.2,46.6,42.0,73,60,41,29.96,29.82,15,4,15,0.00
2012-6-26,56.3,49.0,40.1,47.6,42.8,36.6,95,80,63,30.22,29.73,22,6,22,0.50
2012-6-27,71.3,55.8,38.9,51.2,42.8,35.4,89,64,41,30.22,30.05,20,6,20,0.00
2012-6-28,85.1,64.9,48.6,63.7,49.7,38.1,79,59,30,30.06,29.88,14,6,14,0.00
2012-6-29,77.0,64.5,54.2,55.5,49.7,43.6,81,60,42,30.13,29.95,14,4,14,0.00
2012-6-30,83.8,65.3,52.7,62.4,55.1,47.8,94,72,42,30.07,29.87,21,5,21,0.22
2012-7-1,69.9,57.6,54.2,57.8,54.9,50.6,95,91,64,30.06,29.90,7,2,13,0.21
2012-7-2,83.3,66.8,51.6,61.8,55.5,47.6,89,69,44,30.05,29.76,16,7,16,0.00
2012-7-3,65.0,58.1,45.4,51.1,40.6,34.4,76,53,41,30.16,29.75,16,5,16,0.04
2012-7-4,71.7,55.4,38.7,49.9,40.9,32.3,81,60,39,30.16,29.96,12,3,12,0.02
2012-7-5,75.2,53.7,43.6,52.4,43.6,38.8,85,70,45,30.10,29.99,15,4,15,0.00
2012-7-6,81.5,65.5,50.4,61.6,51.5,44.9,82,63,29,30.15,29.95,14,3,14,0.02
2012-7-7,90.8,72.1,55.5,68.5,56.0,47.7,82,58,29,30.10,29.97,18,4,18,0.00
2012-7-8,90.0,75.6,58.1,69.6,56.7,46.1,73,53,30,30.09,29.94,13,5,13,0.00
2012-7-9,81.5,73.5,62.1,64.5,56.5,43.4,73,56,30,30.09,29.91,27,6,27,0.02
2012-7-10,89.2,75.1,63.0,63.6,57.2,43.8,80,55,32,30.05,29.88,32,5,32,0.00
2012-7-11,90.6,75.1,58.6,64.8,58.8,52.8,85,60,33,30.02,29.86,10,2,10,0.00
2012-7-12,91.0,74.4,56.6,64.4,57.2,50.3,80,57,34,29.95,29.75,14,5,14,0.00
2012-7-13,84.7,72.3,61.7,65.0,56.7,51.6,73,59,42,29.95,29.78,17,4,17,0.00
2012-7-14,81.8,68.2,59.0,62.4,57.2,52.3,82,69,47,29.98,29.86,22,6,22,0.00
2012-7-15,72.2,63.1,56.9,62.3,57.7,52.5,94,83,67,29.94,29.83,27,5,27,0.71
2012-7-16,77.3,62.3,51.1,65.4,55.6,46.5,94,80,61,29.96,29.83,28,8,28,0.00
2012-7-17,76.1,66.2,56.1,60.3,57.8,53.4,94,76,56,29.94,29.81,56,4,56,0.11
2012-7-18,85.0,70.0,55.4,66.4,60.7,53.1,94,74,49,29.97,29.87,12,2,12,0.00
2012-7-19,90.8,73.6,59.3,67.6,59.5,51.1,88,64,28,30.03,29.86,26,4,26,0.00
2012-7-20,82.0,69.1,57.9,65.7,57.4,46.8,83,67,48,30.18,29.86,38,7,38,0.00
2012-7-21,80.4,64.9,48.6,60.0,52.5,44.4,89,66,44,30.25,30.06,11,3,11,0.00
2012-7-22,85.5,68.5,53.2,63.8,53.2,39.9,85,60,39,30.10,29.87,15,4,15,0.00
2012-7-23,71.3,58.3,44.7,49.8,42.8,37.1,82,57,39,30.22,29.98,13,4,13,0.00
2012-7-24,79.8,60.7,42.5,53.1,44.8,36.6,82,59,33,30.21,30.01,12,3,12,0.00
2012-7-25,84.0,65.6,48.3,55.0,48.9,43.1,84,58,28,30.08,29.95,20,3,20,0.00
2012-7-26,87.0,69.4,52.9,60.5,52.2,46.6,79,57,33,30.00,29.84,12,3,12,0.00
2012-7-27,83.8,72.0,61.6,59.4,51.9,39.3,73,50,38,29.99,29.85,15,4,15,0.00
2012-7-28,82.0,66.5,50.4,52.8,43.4,34.5,70,45,28,30.13,29.97,13,3,13,0.00
2012-7-29,84.3,66.3,46.7,53.4,45.1,38.3,74,49,26,30.17,29.99,12,3,12,0.00
2012-7-30,83.0,68.7,52.4,54.2,46.5,39.1,75,47,29,30.07,29.98,14,3,14,0.00
2012-7-31,83.7,67.6,49.8,54.1,45.3,39.1,70,47,27,30.12,30.02,14,4,14,0.00
2012-8-1,84.3,66.5,47.1,49.9,42.1,34.0,72,44,25,30.16,30.03,14,4,14,0.00
2012-8-2,80.2,64.7,49.6,50.9,42.9,35.1,65,46,30,30.11,29.99,17,4,17,0.00
2012-8-3,78.7,65.1,51.8,47.9,41.9,37.2,65,44,25,30.13,30.00,23,6,23,0.00
2012-8-4,85.7,67.0,49.0,51.6,43.7,39.1,71,46,22,30.12,29.99,15,4,15,0.00
2012-8-5,93.5,73.6,53.6,56.6,47.0,39.4,60,41,19,30.05,29.92,10,3,10,0.00
2012-8-6,85.3,73.1,61.2,56.2,49.5,42.4,65,45,30,30.17,29.97,18,5,18,0.00
2012-8-7,92.0,76.4,60.9,56.1,51.2,46.7,66,44,23,30.09,29.87,20,6,20,0.00
2012-8-8,88.0,72.8,57.4,57.4,47.6,33.7,72,43,23,30.14,29.87,17,4,17,0.00
2012-8-9,89.3,70.8,49.6,47.2,39.3,33.4,58,34,16,30.20,29.97,15,4,15,0.00
2012-8-10,85.8,71.3,60.1,51.8,43.4,38.7,48,37,24,30.01,29.92,17,5,17,0.00
2012-8-11,87.1,70.8,52.2,52.6,40.7,35.6,57,35,19,30.10,29.97,15,3,15,0.00
2012-8-12,92.5,71.8,53.2,48.7,41.9,36.8,57,36,18,30.06,29.91,15,4,15,0.00
2012-8-13,92.5,77.0,58.0,49.5,42.1,35.8,52,30,18,30.01,29.88,13,3,13,0.00
2012-8-14,90.1,73.8,55.8,49.7,43.4,36.2,54,35,20,29.96,29.78,16,4,16,0.00
2012-8-15,84.7,70.3,56.5,54.9,48.6,42.6,61,47,28,30.00,29.83,15,6,15,0.00
2012-8-16,86.0,69.5,52.0,55.8,46.7,40.4,74,47,26,30.05,29.97,16,4,16,0.00
2012-8-17,89.3,72.2,53.3,48.4,39.0,28.0,64,33,13,30.13,29.98,12,3,12,0.00
2012-8-18,92.2,73.1,53.9,50.0,41.3,33.2,51,34,20,30.03,29.88,14,5,14,0.00
2012-8-19,93.5,76.2,57.0,49.6,44.5,40.8,55,34,19,29.97,29.84,20,3,20,0.00
2012-8-20,88.5,75.3,60.8,52.6,45.9,39.3,57,37,23,30.01,29.86,18,4,18,0.00
2012-8-21,80.9,70.8,59.0,51.8,45.8,38.8,54,41,32,29.93,29.83,27,6,27,0.00
2012-8-22,78.7,63.2,47.2,47.5,41.9,33.3,79,48,28,30.06,29.89,14,4,14,0.00
2012-8-23,80.3,61.0,45.1,47.2,35.8,23.8,63,41,24,30.06,29.92,20,5,20,0.00
2012-8-24,70.2,55.2,41.3,39.5,34.6,27.6,78,48,26,30.22,29.96,17,6,17,0.00
2012-8-25,76.4,59.0,41.0,38.0,31.7,27.1,61,38,20,30.12,29.87,15,6,15,0.00
2012-8-26,88.0,68.3,51.9,44.7,35.0,27.6,45,30,15,29.88,29.75,31,7,31,0.00
2012-8-27,82.9,68.4,55.4,46.6,40.5,35.3,51,37,26,30.08,29.80,13,3,13,0.00
2012-8-28,82.4,65.8,47.6,47.4,42.7,37.1,69,45,27,30.08,29.90,17,4,17,0.00
2012-8-29,72.2,59.7,44.8,43.6,39.9,34.6,68,49,32,30.17,29.96,18,4,18,0.00
2012-8-30,75.1,58.7,42.5,43.7,37.9,33.8,73,49,28,30.14,29.92,15,4,15,0.00
2012-8-31,82.2,65.2,48.7,44.1,37.8,32.7,58,38,23,29.92,29.81,20,4,20,0.00
2012-9-1,73.3,59.4,44.0,41.6,35.8,27.1,66,43,27,30.19,29.85,15,4,15,0.00
2012-9-2,75.3,57.8,40.6,36.6,30.6,26.0,57,38,19,30.23,30.12,17,5,17,0.00
2012-9-3,78.9,60.8,42.8,37.9,32.7,27.3,55,37,21,30.23,30.06,15,4,15,0.00
2012-9-4,76.7,63.0,49.6,41.7,36.7,31.6,53,39,25,30.22,30.08,20,5,20,0.00
2012-9-5,81.4,62.0,43.8,43.0,36.8,31.1,64,41,23,30.19,29.94,14,4,14,0.00
2012-9-6,74.6,63.3,53.2,43.9,39.4,34.1,53,42,30,30.17,29.94,23,7,23,0.00
2012-9-7,81.0,60.9,43.9,45.5,38.7,32.8,77,47,22,30.33,30.16,17,4,17,0.00
2012-9-8,85.2,68.7,49.1,39.8,35.1,31.1,53,31,17,30.26,29.88,20,7,20,0.00
2012-9-9,83.3,69.3,54.1,45.1,34.5,25.8,43,29,15,29.92,29.80,22,5,22,0.00
2012-9-10,66.5,53.6,38.5,44.0,35.8,25.4,83,53,33,30.18,29.92,30,6,30,0.00
2012-9-11,63.9,49.3,35.1,32.2,26.8,18.4,72,44,22,30.41,30.17,14,6,14,0.00
2012-9-12,70.9,49.2,30.8,30.0,23.9,18.5,62,39,21,30.55,30.39,14,4,14,0.00
2012-9-13,76.5,58.2,41.3,31.0,26.3,20.1,53,32,17,30.51,30.25,15,6,15,0.00
2012-9-14,83.0,64.7,48.1,41.8,28.8,20.5,37,27,17,30.28,30.04,16,5,16,0.00
2012-9-15,85.2,68.7,55.2,43.2,35.1,27.9,40,29,21,30.17,30.03,17,4,17,0.00
2012-9-16,80.5,66.0,53.1,42.0,36.1,30.4,45,34,22,30.21,30.07,16,4,16,0.00
2012-9-17,79.3,62.9,45.0,35.5,29.7,24.5,46,30,18,30.27,30.14,16,4,16,0.00
2012-9-18,83.4,63.5,48.2,37.3,31.0,26.0,44,31,17,30.25,30.09,12,3,12,0.00
2012-9-19,85.0,63.1,48.6,37.1,31.2,26.0,47,32,16,30.26,30.13,17,3,17,0.00
2012-9-20,87.3,64.5,46.6,41.9,32.5,26.8,47,32,18,30.26,30.11,12,3,12,0.00
2012-9-21,78.7,63.4,51.6,41.8,35.8,30.6,51,37,24,30.18,30.01,12,4,12,0.00
2012-9-22,80.8,64.3,49.9,45.2,40.3,33.1,55,42,27,30.12,30.00,15,4,15,0.00
2012-9-23,67.3,57.5,47.4,41.1,37.7,34.6,63,49,35,30.22,30.00,12,2,12,0.00
2012-9-24,74.7,58.2,47.5,44.5,39.8,35.3,64,52,33,30.22,30.04,9,2,9,0.00
2012-9-25,75.1,61.0,48.0,47.5,43.8,40.3,79,55,36,30.10,30.00,10,2,10,0.00
2012-9-26,73.8,57.1,42.0,48.2,41.4,32.3,91,59,30,30.19,30.07,12,2,12,0.00
2012-9-27,78.8,57.2,41.6,46.0,39.3,34.0,79,54,30,30.23,30.06,12,4,12,0.00
2012-9-28,80.0,61.5,46.7,44.4,38.8,35.1,65,45,26,30.10,29.99,9,2,9,0.00
2012-9-29,78.7,61.5,46.1,47.4,41.5,35.1,72,49,32,30.22,30.03,16,4,16,0.00
2012-9-30,75.5,57.9,45.6,46.4,39.1,29.3,82,53,27,30.43,30.20,13,3,13,0.00
2012-10-1,79.8,58.5,42.3,41.2,32.6,28.3,60,40,20,30.42,30.03,12,4,12,0.00
2012-10-2,71.3,57.1,38.3,44.1,33.1,13.7,59,42,20,30.25,29.95,34,9,34,0.00
2012-10-3,52.6,41.4,30.8,26.3,20.0,13.7,61,43,32,30.56,30.24,18,6,18,0.00
2012-10-4,57.1,37.7,26.7,28.6,24.7,19.2,77,60,30,30.47,30.38,10,4,12,0.00
2012-10-5,54.7,39.2,25.1,25.8,20.0,11.6,75,49,22,30.57,30.42,13,4,13,0.00
2012-10-6,60.2,40.8,24.8,21.5,15.6,10.6,60,38,18,30.56,30.37,12,4,12,0.00
2012-10-7,68.0,47.0,32.1,29.4,20.9,13.2,49,37,23,30.39,30.12,14,4,14,0.00
2012-10-8,69.9,49.8,31.5,29.2,23.2,17.3,57,37,21,30.16,29.99,16,4,16,0.00
2012-10-9,70.1,50.5,35.5,32.3,25.0,18.0,56,39,23,30.25,30.06,10,3,10,0.00
2012-10-10,71.6,51.7,37.8,35.6,29.8,24.9,63,45,25,30.17,29.98,10,3,10,0.00
2012-10-11,66.4,51.6,36.9,35.4,31.0,26.6,71,47,29,30.14,29.89,12,4,12,0.00
2012-10-12,71.0,53.4,40.8,41.2,33.8,25.6,78,50,26,30.04,29.87,14,3,14,0.01
2012-10-13,58.2,50.9,46.0,50.1,46.0,39.8,95,84,67,30.33,30.02,20,4,20,0.27
2012-10-14,70.4,56.1,45.4,51.4,45.1,40.8,88,68,43,30.31,30.04,17,4,17,0.01
2012-10-15,62.7,54.0,49.4,55.4,48.8,44.8,93,83,59,30.07,29.76,18,6,18,0.45
2012-10-16,57.8,49.3,40.2,52.7,39.4,29.0,94,70,46,30.24,29.60,44,22,44,0.16
2012-10-17,53.9,41.9,33.8,35.5,31.7,28.0,81,68,41,30.47,30.24,24,5,24,0.03
2012-10-18,59.1,45.0,30.2,35.4,30.7,25.9,85,60,37,30.49,29.99,18,7,18,0.03
2012-10-19,59.0,53.1,48.0,45.1,40.2,27.6,86,63,33,30.04,29.75,34,14,34,0.06
2012-10-20,50.8,41.0,30.0,44.3,32.9,25.0,93,74,47,30.07,29.76,34,10,34,0.32
2012-10-21,47.7,35.9,28.9,31.3,27.3,24.2,85,72,49,30.12,29.97,12,3,12,0.03
2012-10-22,41.8,34.0,27.8,34.7,28.8,23.3,91,81,71,29.99,29.68,27,8,27,0.04
2012-10-23,35.9,32.1,28.9,33.6,29.3,25.1,100,89,75,30.17,29.89,15,4,15,0.03
2012-10-24,39.5,32.3,24.7,34.2,29.5,23.0,95,89,74,30.31,30.17,15,5,15,0.01
2012-10-25,39.1,33.4,30.0,35.8,31.7,28.4,95,93,85,30.66,30.29,14,3,14,0.06
2012-10-26,34.1,31.5,27.1,31.8,29.6,25.1,95,92,89,30.62,30.30,10,4,10,0.02
2012-10-27,41.8,37.7,33.3,39.5,35.0,31.5,95,90,81,30.30,30.05,22,8,22,0.42
2012-10-28,49.9,46.7,41.4,47.5,44.2,39.1,96,91,84,30.10,30.00,22,6,22,0.30
2012-10-29,58.1,51.7,45.4,51.2,46.0,40.8,95,82,66,30.21,29.97,33,11,33,0.36
2012-10-30,58.0,49.9,45.0,51.2,45.9,41.1,95,86,67,30.17,30.02,12,4,12,0.10
2012-10-31,64.5,53.1,45.3,46.9,42.0,35.8,94,68,38,30.02,29.84,30,6,30,0.01
2012-11-1,52.6,45.0,39.5,42.7,40.5,36.5,95,85,57,30.18,29.90,37,5,37,0.11
2012-11-2,51.7,45.1,40.3,44.6,40.9,37.1,96,85,71,30.28,30.18,16,4,16,0.09
2012-11-3,51.8,45.9,40.6,46.6,41.5,37.4,94,85,71,30.33,30.18,14,4,14,0.01
2012-11-4,55.8,50.4,44.3,48.7,44.4,40.4,89,80,67,30.49,30.32,10,4,10,0.00
2012-11-5,60.9,52.4,45.4,51.6,46.0,40.6,93,79,67,30.44,30.31,20,6,20,0.00
2012-11-6,66.5,54.5,44.3,51.7,44.5,39.8,91,70,48,30.32,29.98,17,6,17,0.00
2012-11-7,54.8,41.4,32.4,45.5,37.8,29.8,94,87,64,30.21,29.95,20,4,20,0.36
2012-11-8,32.6,30.5,28.4,31.6,29.4,26.7,96,96,93,30.11,29.86,18,4,18,0.00
2012-11-9,32.6,27.9,21.9,31.3,26.6,20.2,96,95,93,30.06,29.92,12,2,12,0.06
2012-11-10,28.9,24.9,19.3,26.8,23.3,17.4,95,93,90,30.43,30.04,21,5,21,0.01
2012-11-11,31.9,26.0,17.3,26.9,21.5,14.4,93,83,75,30.59,30.42,17,5,17,0.03
2012-11-12,35.6,31.8,26.4,31.0,27.6,20.5,92,84,74,30.54,30.41,20,7,20,0.02
2012-11-13,40.0,35.8,32.9,35.9,31.7,28.0,94,85,77,30.48,30.34,16,5,16,0.04
2012-11-14,42.0,37.5,34.7,39.6,35.4,32.8,100,92,86,30.49,30.34,16,4,16,0.12
2012-11-15,43.0,35.7,30.2,36.3,32.4,29.1,97,88,70,30.49,30.17,17,6,17,0.01
2012-11-16,52.0,39.1,32.1,42.4,35.6,29.8,94,87,67,30.18,30.07,9,3,9,0.00
2012-11-17,51.2,42.6,32.8,41.8,37.5,31.0,94,83,64,30.08,29.72,24,10,24,0.09
2012-11-18,40.2,35.1,30.9,34.1,30.0,26.0,95,82,63,30.15,29.89,16,7,16,0.20
2012-11-19,52.1,44.5,36.8,38.9,35.6,28.9,80,71,59,30.09,29.87,33,14,33,0.00
2012-11-20,53.9,46.4,40.7,42.8,40.4,37.6,96,81,57,29.99,29.80,44,14,44,0.02
2012-11-21,42.2,38.6,33.7,39.4,31.3,23.5,94,76,51,30.38,29.77,41,14,41,0.22
2012-11-22,39.3,33.3,27.6,27.9,25.2,22.0,81,72,59,30.65,30.37,24,7,24,0.00
2012-11-23,44.1,36.5,29.5,35.7,28.4,24.9,85,73,52,30.57,30.28,21,6,21,0.03
2012-11-24,41.9,38.4,33.4,38.3,36.1,31.6,94,91,83,30.32,30.24,17,6,17,0.45
2012-11-25,40.4,31.4,26.0,34.3,28.6,23.5,95,89,71,30.52,30.25,16,5,16,0.00
2012-11-26,35.1,27.8,22.6,30.7,25.0,20.8,95,89,77,30.53,30.39,12,5,12,0.01
2012-11-27,36.9,30.5,23.9,31.9,26.5,21.1,90,85,79,30.44,30.28,14,5,14,0.00
2012-11-28,42.9,34.5,27.9,37.1,30.1,25.3,91,84,73,30.28,30.01,17,7,17,0.01
2012-11-29,48.1,43.1,35.6,39.5,36.1,32.1,89,76,65,30.07,29.66,32,8,32,0.00
2012-11-30,47.8,43.7,38.9,43.1,39.4,36.6,93,85,74,29.68,29.56,30,8,30,0.10
2012-12-1,48.6,42.0,37.3,43.6,37.4,35.3,95,84,72,29.77,29.53,24,7,24,0.29
2012-12-2,45.3,39.5,36.7,41.3,33.8,27.0,96,81,61,29.93,29.22,40,15,40,0.39
2012-12-3,45.0,39.8,35.7,33.4,29.7,27.5,75,67,57,30.15,29.93,24,10,24,0.04
2012-12-4,46.9,42.3,36.1,40.2,36.3,28.1,92,79,66,29.98,29.78,31,10,31,0.04
2012-12-5,47.9,37.1,30.6,41.1,31.3,23.9,94,80,69,30.25,29.77,25,7,25,0.04
2012-12-6,33.7,31.3,29.9,30.4,27.7,24.9,94,86,71,30.21,30.07,28,7,28,0.00
2012-12-7,36.4,31.5,25.9,30.7,27.5,19.4,94,85,74,30.12,29.84,40,14,40,0.01
2012-12-8,29.4,23.9,14.6,24.0,19.7,11.9,92,84,74,30.41,30.02,31,8,31,0.00
2012-12-9,28.6,23.1,14.4,25.3,18.9,10.4,94,84,73,30.57,30.27,15,5,15,0.00
2012-12-10,45.6,33.0,26.3,37.6,30.7,24.8,96,92,67,30.34,30.07,22,5,22,0.15
2012-12-11,39.4,35.6,31.0,32.4,30.1,27.5,93,80,68,30.07,29.60,33,8,33,0.08
2012-12-12,39.4,31.9,25.8,36.5,29.8,24.1,95,92,82,30.02,29.61,10,2,10,0.05
2012-12-13,35.6,24.8,17.9,28.8,21.9,15.7,94,89,72,30.12,29.93,12,4,12,0.01
2012-12-14,30.1,24.0,15.5,28.8,22.5,13.0,95,94,90,30.00,29.87,4,0,4,0.01
2012-12-15,31.1,27.5,23.3,27.3,24.3,20.9,95,88,69,30.01,29.69,14,4,14,0.02
2012-12-16,34.4,30.9,28.3,29.9,23.7,21.0,90,75,62,29.87,29.34,30,14,30,0.01
2012-12-17,41.1,34.1,26.2,32.1,25.4,17.4,91,71,59,29.91,29.32,51,28,51,0.00
2012-12-18,35.4,25.3,19.7,20.9,17.2,14.2,90,72,50,30.09,29.91,25,8,25,0.00
2012-12-19,30.4,25.1,17.2,18.5,15.8,10.9,79,68,57,30.20,30.06,26,11,26,0.00
2012-12-20,41.4,35.1,29.7,24.5,19.6,15.2,65,53,40,30.06,29.85,29,14,29,0.00
2012-12-21,39.2,36.5,32.8,27.7,24.5,18.6,78,62,47,29.93,29.84,21,6,21,0.00
2012-12-22,36.1,34.4,30.5,28.4,27.2,26.0,85,75,67,29.89,29.74,31,10,31,0.00
2012-12-23,35.2,32.5,27.8,27.6,25.2,21.3,86,74,66,29.97,29.62,31,10,31,0.00
2012-12-24,33.7,28.7,25.0,27.5,25.5,21.1,100,88,67,30.26,29.72,34,12,34,0.00
2012-12-25,29.3,24.2,18.5,24.6,20.8,15.2,94,87,75,30.27,29.89,20,8,20,0.00
2012-12-26,33.2,27.4,23.7,29.8,25.0,21.6,100,91,80,29.99,29.84,12,4,12,0.10
2012-12-27,31.0,27.6,25.9,29.7,26.2,24.5,95,95,93,30.22,29.98,10,1,10,0.05
2012-12-28,30.6,23.5,15.8,26.0,20.6,13.0,95,89,75,30.33,30.21,13,3,13,0.02
2012-12-29,28.7,20.3,12.2,21.7,16.7,8.4,93,86,66,30.36,30.20,12,3,12,0.01
2012-12-30,25.0,20.7,14.8,23.2,18.9,12.6,100,92,91,30.41,30.28,12,2,12,0.00
2012-12-31,23.1,18.5,14.2,21.1,16.6,11.9,100,92,90,30.57,30.39,9,2,9,0.00
2013-1-1,23.4,20.9,19.4,21.7,19.1,17.5,100,92,92,30.68,30.54,7,1,7,0.00